Data for 06/16/2010

Time Sea-Level Adjusted Pressure Absolute Pressure Temperature Relative Humidity Dew Point   
(mb) (inHg) (mb) (inHg) (C) (F) (%) (C) (F)
00:05 1015 29.97 845 24.95 9.8 49.6 92 8.6 47.5
00:10 1015 29.97 845 24.95 9.8 49.6 91 8.5 47.2
00:15 1015 29.97 845 24.95 9.8 49.7 91 8.5 47.2
00:20 1015 29.97 845 24.95 9.8 49.6 92 8.5 47.3
00:25 1015 29.97 844 24.92 9.7 49.5 92 8.4 47.2
00:30 1015 29.97 844 24.92 9.7 49.4 91 8.3 46.9
00:35 1015 29.97 844 24.92 9.7 49.4 90 8.1 46.7
00:40 1015 29.97 844 24.92 9.7 49.4 90 8 46.5
00:45 1015 29.97 844 24.92 9.7 49.4 90 8.1 46.6
00:50 1015 29.97 844 24.92 9.7 49.4 89 8 46.4
00:55 1015 29.97 844 24.92 9.7 49.5 89 8 46.5
01:00 1015 29.97 844 24.92 9.6 49.4 88 7.8 46
01:05 1015 29.97 844 24.92 9.7 49.4 88 7.9 46.1
01:10 1015 29.97 844 24.92 9.7 49.4 87 7.6 45.7
01:15 1015 29.97 844 24.92 9.8 49.6 85 7.5 45.4
01:20 1014 29.94 844 24.92 9.8 49.6 86 7.5 45.5
01:25 1014 29.94 844 24.92 9.6 49.4 88 7.7 45.9
01:30 1014 29.94 843 24.89 9.7 49.4 85 7.4 45.3
01:35 1014 29.94 843 24.89 9.9 49.9 83 7.3 45.1
01:40 1014 29.94 843 24.89 10.1 50.3 82 7.2 45
01:45 1014 29.94 843 24.89 10.3 50.5 82 7.4 45.2
01:50 1014 29.94 843 24.89 10.3 50.5 81 7.2 45
01:55 1013 29.91 843 24.89 10.2 50.3 82 7.3 45.1
02:00 1013 29.91 843 24.89 10.2 50.3 81 7.1 44.8
02:05 1013 29.91 843 24.89 10.2 50.4 82 7.2 45
02:10 1013 29.91 842 24.86 10.2 50.4 82 7.2 45
02:15 1013 29.91 842 24.86 10.2 50.4 81 7.2 45
02:20 1013 29.91 842 24.86 10.3 50.5 81 7.2 44.9
02:25 1014 29.94 843 24.89 10.4 50.6 81 7.3 45.1
02:30 1014 29.94 843 24.89 10.3 50.5 82 7.4 45.3
02:35 1014 29.94 843 24.89 10.3 50.5 82 7.3 45.2
02:40 1014 29.94 843 24.89 10.4 50.7 83 7.5 45.6
02:45 1014 29.94 843 24.89 10.3 50.5 82 7.4 45.4
02:50 1013 29.91 843 24.89 10.4 50.7 82 7.5 45.4
02:55 1013 29.91 843 24.89 10.5 50.9 82 7.5 45.5
03:00 1013 29.91 842 24.86 10.4 50.7 83 7.6 45.6
03:05 1013 29.91 842 24.86 10.3 50.5 83 7.5 45.5
03:10 1013 29.91 842 24.86 10.3 50.6 83 7.5 45.6
03:15 1013 29.91 842 24.86 10.3 50.5 84 7.7 45.8
03:20 1013 29.91 842 24.86 10.4 50.6 83 7.6 45.8
03:25 1013 29.91 842 24.86 10.4 50.6 84 7.8 46
03:30 1013 29.91 842 24.86 10.4 50.7 84 7.8 46.1
03:35 1013 29.91 842 24.86 10.5 50.9 84 8 46.3
03:40 1013 29.91 842 24.86 10.5 50.8 84 8 46.3
03:45 1013 29.91 842 24.86 10.5 50.9 84 8 46.3
03:50 1013 29.91 842 24.86 10.5 50.8 85 8.1 46.5
03:55 1013 29.91 842 24.86 10.4 50.8 86 8.1 46.6
04:00 1013 29.91 842 24.86 10.4 50.7 86 8.1 46.6
04:05 1013 29.91 842 24.86 10.5 50.8 86 8.2 46.8
04:10 1013 29.91 842 24.86 10.5 50.9 87 8.3 47
04:15 1012 29.88 842 24.86 10.5 50.8 86 8.3 46.9
04:20 1012 29.88 841 24.83 10.4 50.8 86 8.2 46.8
04:25 1012 29.88 841 24.83 10.4 50.8 86 8.1 46.7
04:30 1012 29.88 841 24.83 10.5 50.8 85 8.1 46.5
04:35 1012 29.88 841 24.83 10.5 50.9 85 8.1 46.5
04:40 1012 29.88 841 24.83 10.5 50.9 85 8.1 46.6
04:45 1012 29.88 841 24.83 10.5 51 84 8 46.5
04:50 1012 29.88 841 24.83 10.5 50.9 84 7.9 46.2
04:55 1012 29.88 841 24.83 10.5 50.9 84 8 46.4
05:00 1012 29.88 841 24.83 10.4 50.8 85 8 46.4
05:05 1012 29.88 841 24.83 10.4 50.8 84 7.8 46.1
05:10 1012 29.88 841 24.83 10.5 50.9 84 7.9 46.2
05:15 1012 29.88 841 24.83 10.5 50.8 84 7.8 46.1
05:20 1012 29.88 841 24.83 10.5 50.8 83 7.8 46
05:25 1012 29.88 841 24.83 10.6 51 83 7.7 45.9
05:30 1012 29.88 841 24.83 10.7 51.2 83 7.8 46.1
05:35 1012 29.88 841 24.83 10.6 51.1 83 7.8 46
05:40 1012 29.88 841 24.83 10.6 51 83 7.8 46
05:45 1012 29.88 841 24.83 10.6 51 83 7.7 45.9
05:50 1011 29.85 841 24.83 10.6 51.1 82 7.7 45.9
05:55 1012 29.88 841 24.83 10.7 51.3 82 7.7 45.9
06:00 1012 29.88 841 24.83 10.7 51.2 82 7.8 46
06:05 1012 29.88 841 24.83 10.7 51.2 82 7.8 46
06:10 1011 29.85 841 24.83 10.6 51.1 82 7.8 46
06:15 1011 29.85 841 24.83 10.7 51.2 82 7.8 46
06:20 1011 29.85 840 24.81 10.7 51.2 82 7.8 46
06:25 1011 29.85 840 24.81 10.8 51.4 81 7.7 45.9
06:30 1011 29.85 840 24.81 10.9 51.6 81 7.7 45.9
06:35 1011 29.85 840 24.81 10.9 51.6 80 7.6 45.7
06:40 1011 29.85 840 24.81 10.9 51.7 81 7.7 45.9
06:45 1011 29.85 840 24.81 10.9 51.7 80 7.7 45.8
06:50 1011 29.85 840 24.81 11 51.9 80 7.7 45.9
06:55 1011 29.85 840 24.81 11 51.8 81 7.8 46.1
07:00 1011 29.85 840 24.81 11 51.8 80 7.7 45.8
07:05 1011 29.85 840 24.81 11.1 52 79 7.6 45.7
07:10 1011 29.85 840 24.81 11.2 52.1 79 7.7 45.8
07:15 1011 29.85 840 24.81 11.2 52.1 79 7.8 46
07:20 1011 29.85 840 24.81 11.2 52.1 80 7.8 46
07:25 1011 29.85 840 24.81 11.2 52.1 79 7.8 46
07:30 1011 29.85 840 24.81 11.2 52.1 79 7.7 45.8
07:35 1011 29.85 840 24.81 11.2 52.1 80 7.9 46.2
07:40 1011 29.85 840 24.81 11.1 52 80 7.8 46.1
07:45 1011 29.85 840 24.81 11.3 52.3 78 7.6 45.7
07:50 1011 29.85 840 24.81 11.3 52.4 78 7.6 45.7
07:55 1011 29.85 840 24.81 11.5 52.7 76 7.5 45.5
08:00 1011 29.85 840 24.81 11.7 53.1 76 7.7 45.9
08:05 1011 29.85 840 24.81 11.8 53.3 75 7.5 45.6
08:10 1011 29.85 841 24.83 11.9 53.5 74 7.5 45.4
08:15 1012 29.88 841 24.83 12.1 53.7 74 7.6 45.7
08:20 1012 29.88 841 24.83 12 53.7 74 7.6 45.8
08:25 1012 29.88 841 24.83 12 53.7 75 7.8 46
08:30 1012 29.88 841 24.83 11.8 53.2 80 8.5 47.2
08:35 1012 29.88 841 24.83 11.1 52 89 9.3 48.8
08:40 1011 29.85 841 24.83 10.1 50.1 93 9 48.2
08:45 1012 29.88 841 24.83 9.6 49.2 95 8.7 47.7
08:50 1012 29.88 841 24.83 9.5 49.1 94 8.7 47.6
08:55 1012 29.88 841 24.83 9.9 49.8 95 9.1 48.3
09:00 1012 29.88 841 24.83 10.1 50.3 93 9.1 48.3
09:05 1012 29.88 841 24.83 10.3 50.6 90 8.8 47.9
09:10 1012 29.88 841 24.83 10.6 51 89 8.8 47.8
09:15 1012 29.88 841 24.83 10.7 51.2 89 8.9 48
09:20 1012 29.88 841 24.83 10.7 51.2 88 8.7 47.7
09:25 1012 29.88 841 24.83 10.7 51.2 88 8.8 47.8
09:30 1012 29.88 841 24.83 10.5 51 89 8.9 48
09:35 1012 29.88 841 24.83 10.6 51.2 90 9.1 48.3
09:40 1012 29.88 841 24.83 10.8 51.4 90 9.2 48.6
09:45 1012 29.88 841 24.83 10.8 51.4 90 9.2 48.5
09:50 1012 29.88 841 24.83 11.1 51.9 87 9 48.3
09:55 1012 29.88 841 24.83 11.4 52.4 89 9.6 49.2
10:00 1012 29.88 841 24.83 11.8 53.3 84 9.3 48.7
10:05 1012 29.88 841 24.83 12.2 54 82 9.3 48.7
10:10 1012 29.88 841 24.83 12.4 54.2 81 9.1 48.5
10:15 1012 29.88 841 24.83 12.2 53.9 81 9.1 48.4
10:20 1012 29.88 841 24.83 12.2 53.9 82 9.2 48.5
10:25 1012 29.88 841 24.83 12.3 54.1 81 9.2 48.5
10:30 1012 29.88 841 24.83 12.3 54.2 80 9 48.2
10:35 1012 29.88 841 24.83 12.3 54.1 80 9 48.2
10:40 1012 29.88 841 24.83 12.3 54.1 80 8.9 48.1
10:45 1012 29.88 841 24.83 12.1 53.9 81 8.9 48.1
10:50 1012 29.88 841 24.83 12 53.6 82 9.1 48.3
10:55 1012 29.88 841 24.83 12 53.5 84 9.3 48.8
11:00 1012 29.88 841 24.83 12 53.6 85 9.6 49.3
11:05 1012 29.88 841 24.83 12 53.6 85 9.6 49.2
11:10 1012 29.88 841 24.83 12.3 54.2 85 9.9 49.8
11:15 1012 29.88 841 24.83 12.6 54.6 84 9.9 49.8
11:20 1011 29.85 840 24.81 12.6 54.7 83 9.9 49.8
11:25 1011 29.85 840 24.81 12.9 55.3 82 10 50
11:30 1011 29.85 840 24.81 12.9 55.3 82 9.9 49.9
11:35 1011 29.85 840 24.81 12.5 54.4 84 9.9 49.8
11:40 1011 29.85 840 24.81 12.8 55 83 10 50
11:45 1011 29.85 841 24.83 13.2 55.7 81 10 49.9
11:50 1011 29.85 840 24.81 13.2 55.7 79 9.6 49.3
11:55 1011 29.85 840 24.81 12.9 55.3 82 10 50
12:00 1011 29.85 840 24.81 13.9 57 78 10.2 50.4
12:05 1011 29.85 840 24.81 13.5 56.3 79 9.9 49.7
12:10 1010 29.83 840 24.81 13.5 56.4 77 9.6 49.2
12:15 1010 29.83 840 24.81 13.7 56.7 78 9.9 49.8
12:20 1010 29.83 840 24.81 13.8 56.8 77 9.9 49.9
12:25 1011 29.85 840 24.81 13.5 56.2 79 10 49.9
12:30 1011 29.85 840 24.81 13 55.3 80 9.7 49.5
12:35 1011 29.85 840 24.81 12.6 54.7 81 9.5 49.1
12:40 1011 29.85 841 24.83 12.1 53.7 88 10.2 50.3
12:45 1011 29.85 840 24.81 11.5 52.6 91 10.1 50.2
12:50 1011 29.85 840 24.81 11.6 52.9 91 10.1 50.3
12:55 1011 29.85 840 24.81 12.1 53.7 90 10.5 50.8
13:00 1011 29.85 840 24.81 12.3 54.2 89 10.6 51.1
13:05 1011 29.85 840 24.81 12.6 54.6 89 10.8 51.5
13:10 1011 29.85 840 24.81 12.9 55.2 85 10.5 50.9
13:15 1011 29.85 841 24.83 12.7 54.9 86 10.4 50.6
13:20 1012 29.88 841 24.83 12.3 54.2 86 10.1 50.2
13:25 1010 29.83 839 24.78 11.8 53.2 90 10.3 50.5
13:30 1010 29.83 839 24.78 11.2 52.1 92 10 49.9
13:35 1010 29.83 840 24.81 11 51.9 93 9.9 49.8
13:40 1011 29.85 840 24.81 11.2 52.2 93 10.2 50.3
13:45 1011 29.85 840 24.81 11.6 52.8 91 10.2 50.3
13:50 1011 29.85 840 24.81 12.1 53.8 88 10.3 50.5
13:55 1011 29.85 840 24.81 12.4 54.2 86 10 50.1
14:00 1011 29.85 840 24.81 12.1 53.9 87 10.1 50.2
14:05 1011 29.85 840 24.81 12.4 54.4 88 10.4 50.8
14:10 1010 29.83 839 24.78 13.2 55.7 84 10.6 51
14:15 1010 29.83 839 24.78 13.2 55.8 85 10.9 51.5
14:20 1010 29.83 839 24.78 13.5 56.3 84 10.8 51.5
14:25 1010 29.83 839 24.78 14.3 57.7 75 9.8 49.7
14:30 1010 29.83 839 24.78 15.3 59.5 72 10.3 50.5
14:35 1010 29.83 839 24.78 15.4 59.7 73 10.7 51.2
14:40 1010 29.83 839 24.78 16 60.8 62 8.7 47.7
14:45 1010 29.83 839 24.78 16.8 62.2 64 10.1 50.1
14:50 1010 29.83 839 24.78 16 60.8 65 9.5 49.2
14:55 1010 29.83 839 24.78 15.8 60.5 64 9.1 48.4
15:00 1010 29.83 839 24.78 16 60.8 64 9.3 48.7
15:05 1010 29.83 839 24.78 16.7 62.1 62 9.5 49
15:10 1010 29.83 839 24.78 17.4 63.3 58 9.1 48.3
15:15 1010 29.83 839 24.78 17.4 63.3 59 9.5 49.1
15:20 1010 29.83 839 24.78 17.7 63.9 58 9.5 49.1
15:25 1010 29.83 839 24.78 16.9 62.5 62 9.6 49.4
15:30 1010 29.83 839 24.78 16.5 61.7 64 9.7 49.4
15:35 1010 29.83 839 24.78 16.6 61.9 62 9.4 49
15:40 1010 29.83 839 24.78 16.5 61.6 63 9.5 49
15:45 1010 29.83 839 24.78 16.4 61.5 61 8.8 47.9
15:50 1010 29.83 839 24.78 17 62.6 60 9.4 48.9
15:55 1010 29.83 839 24.78 16.2 61.2 64 9.4 49
16:00 1010 29.83 839 24.78 15.4 59.7 68 9.7 49.4
16:05 1010 29.83 839 24.78 15.1 59.3 68 9.4 49
16:10 1010 29.83 839 24.78 14.9 58.8 70 9.5 49.1
16:15 1010 29.83 839 24.78 14.7 58.4 74 10.1 50.2
16:20 1010 29.83 839 24.78 13.9 56.9 80 10.6 51
16:25 1010 29.83 839 24.78 13.2 55.7 84 10.5 51
16:30 1010 29.83 839 24.78 12.5 54.4 85 10.1 50.1
16:35 1010 29.83 840 24.81 11.8 53.3 87 9.8 49.7
16:40 1011 29.85 840 24.81 11.5 52.7 86 9.3 48.7
16:45 1011 29.85 840 24.81 11 51.8 87 9 48.2
16:50 1011 29.85 840 24.81 10.8 51.4 89 9.1 48.4
16:55 1011 29.85 840 24.81 10.8 51.4 90 9.1 48.4
17:00 1011 29.85 840 24.81 10.7 51.3 89 9 48.2
17:05 1011 29.85 840 24.81 10.7 51.2 88 8.7 47.7
17:10 1011 29.85 840 24.81 10.6 51.1 87 8.6 47.5
17:15 1011 29.85 841 24.83 10.4 50.8 90 8.8 47.9
17:20 1011 29.85 840 24.81 10.4 50.6 91 9 48.2
17:25 1011 29.85 841 24.83 10.4 50.7 91 9 48.2
17:30 1011 29.85 841 24.83 10.4 50.6 91 9 48.1
17:35 1011 29.85 841 24.83 10.3 50.5 91 8.9 48.1
17:40 1011 29.85 841 24.83 10.3 50.5 91 8.9 48
17:45 1011 29.85 841 24.83 9.9 49.9 89 8.3 46.9
17:50 1012 29.88 841 24.83 9.7 49.4 88 7.9 46.2
17:55 1012 29.88 841 24.83 9.4 48.8 90 7.8 46.1
18:00 1011 29.85 841 24.83 9.4 49 90 7.8 46
18:05 1011 29.85 841 24.83 9.4 49 90 7.9 46.3
18:10 1012 29.88 841 24.83 9.4 48.9 90 7.9 46.2
18:15 1012 29.88 841 24.83 9.4 48.9 90 7.9 46.2
18:20 1012 29.88 841 24.83 9.2 48.6 91 7.8 46
18:25 1012 29.88 841 24.83 9.3 48.7 90 7.6 45.7
18:30 1012 29.88 841 24.83 9.4 49 90 7.8 46.1
18:35 1011 29.85 841 24.83 9.7 49.4 89 7.9 46.1
18:40 1011 29.85 841 24.83 9.6 49.3 89 7.9 46.2
18:45 1012 29.88 841 24.83 9.6 49.3 88 7.8 46
18:50 1012 29.88 841 24.83 9.7 49.4 87 7.7 45.8
18:55 1012 29.88 841 24.83 9.7 49.4 86 7.5 45.4
19:00 1012 29.88 841 24.83 9.7 49.5 87 7.7 45.8
19:05 1012 29.88 841 24.83 9.8 49.7 86 7.6 45.6
19:10 1012 29.88 841 24.83 9.9 49.8 84 7.4 45.3
19:15 1012 29.88 841 24.83 9.9 49.8 84 7.4 45.3
19:20 1012 29.88 841 24.83 9.8 49.7 85 7.4 45.3
19:25 1012 29.88 841 24.83 9.8 49.7 85 7.4 45.3
19:30 1012 29.88 841 24.83 9.8 49.7 86 7.6 45.7
19:35 1012 29.88 841 24.83 9.8 49.6 86 7.5 45.5
19:40 1012 29.88 841 24.83 9.8 49.6 86 7.6 45.7
19:45 1012 29.88 841 24.83 9.8 49.7 85 7.4 45.4
19:50 1012 29.88 841 24.83 9.8 49.7 87 7.8 46.1
19:55 1012 29.88 841 24.83 10 49.9 87 7.8 46.1
20:00 1012 29.88 841 24.83 9.9 49.8 85 7.4 45.3
20:05 1012 29.88 841 24.83 9.9 49.7 87 7.8 46
20:10 1012 29.88 841 24.83 10 49.9 85 7.6 45.7
20:15 1012 29.88 841 24.83 9.8 49.6 86 7.7 45.8
20:20 1012 29.88 841 24.83 9.7 49.5 87 7.7 45.9
20:25 1012 29.88 841 24.83 9.6 49.3 88 7.7 45.9
20:30 1011 29.85 841 24.83 9.5 49.1 89 7.8 46.1
20:35 1012 29.88 841 24.83 9.4 49 90 7.8 46
20:40 1012 29.88 841 24.83 9.4 48.8 89 7.7 45.8
20:45 1012 29.88 841 24.83 9.4 49 88 7.5 45.5
20:50 1012 29.88 841 24.83 9.5 49.1 89 7.8 46
20:55 1012 29.88 841 24.83 9.5 49 90 7.9 46.2
21:00 1012 29.88 841 24.83 9.4 48.9 90 7.8 46
21:05 1012 29.88 841 24.83 9.4 48.8 88 7.5 45.6
21:10 1012 29.88 841 24.83 9.3 48.8 89 7.7 45.8
21:15 1012 29.88 841 24.83 9.3 48.7 89 7.7 45.8
21:20 1012 29.88 841 24.83 9.3 48.7 89 7.6 45.6
21:25 1012 29.88 841 24.83 9.3 48.8 88 7.5 45.5
21:30 1012 29.88 841 24.83 9.3 48.8 88 7.4 45.3
21:35 1012 29.88 841 24.83 9.3 48.7 89 7.5 45.5
21:40 1012 29.88 841 24.83 9.2 48.6 90 7.6 45.6
21:45 1012 29.88 841 24.83 9.2 48.6 89 7.4 45.3
21:50 1012 29.88 841 24.83 9.2 48.6 89 7.5 45.5
21:55 1012 29.88 841 24.83 9.3 48.8 89 7.6 45.6
22:00 1012 29.88 841 24.83 9.5 49 90 7.9 46.2
22:05 1012 29.88 841 24.83 9.6 49.2 91 8.1 46.6
22:10 1012 29.88 841 24.83 9.5 49.2 91 8.2 46.7
22:15 1012 29.88 841 24.83 9.5 49.1 91 8.2 46.7
22:20 1012 29.88 841 24.83 9.5 49 91 8 46.4
22:25 1012 29.88 841 24.83 9.4 49 91 8.1 46.6
22:30 1012 29.88 841 24.83 9.4 48.9 91 7.9 46.3
22:35 1012 29.88 841 24.83 9.4 48.9 88 7.5 45.6
22:40 1012 29.88 841 24.83 9.3 48.7 88 7.4 45.3
22:45 1012 29.88 841 24.83 9.3 48.7 89 7.5 45.6
22:50 1012 29.88 841 24.83 9.2 48.5 92 7.9 46.2
22:55 1012 29.88 841 24.83 9 48.3 93 8 46.4
23:00 1012 29.88 841 24.83 8.8 47.9 93 7.8 46
23:05 1012 29.88 841 24.83 8.7 47.7 93 7.7 45.9
23:10 1011 29.85 841 24.83 8.7 47.7 94 7.8 46
23:15 1011 29.85 840 24.81 8.6 47.6 94 7.8 46
23:20 1011 29.85 840 24.81 8.6 47.4 94 7.7 45.8
23:25 1011 29.85 840 24.81 8.5 47.3 94 7.6 45.7
23:30 1011 29.85 840 24.81 8.5 47.3 94 7.6 45.7
23:35 1011 29.85 840 24.81 8.5 47.2 94 7.5 45.5
23:40 1011 29.85 840 24.81 8.5 47.3 93 7.4 45.4
23:45 1011 29.85 840 24.81 8.7 47.6 93 7.6 45.6
23:50 1011 29.85 840 24.81 8.7 47.7 92 7.5 45.4
23:55 1011 29.85 840 24.81 8.7 47.7 92 7.5 45.5
24:00 1011 29.85 840 24.81 8.7 47.6 92 7.4 45.3